createdAt,value
2019-02-08T00:01:41.684Z,95354.70
2019-02-08T00:04:11.355Z,95349.08
2019-02-08T00:06:41.042Z,95349.08
2019-02-08T00:09:11.821Z,95355.31
2019-02-08T00:11:41.566Z,95355.31
2019-02-08T00:14:11.603Z,95349.84
2019-02-08T00:16:41.230Z,95347.92
2019-02-08T00:19:11.051Z,95347.92
2019-02-08T00:21:40.725Z,95350.28
2019-02-08T00:24:10.490Z,95350.28
2019-02-08T00:26:40.117Z,95354.29
2019-02-08T00:29:10.207Z,95322.09
2019-02-08T00:31:39.961Z,95322.09
2019-02-08T00:34:09.922Z,95348.84
2019-02-08T00:36:39.559Z,95345.95
2019-02-08T00:39:11.985Z,95342.12
2019-02-08T00:41:41.720Z,95342.12
2019-02-08T00:44:11.331Z,95344.95
2019-02-08T00:46:41.119Z,95343.33
2019-02-08T00:49:10.908Z,95343.33
2019-02-08T00:51:40.446Z,95338.19
2019-02-08T00:54:10.287Z,95336.68
2019-02-08T00:56:40.012Z,95341.66
2019-02-08T00:59:10.174Z,95338.77
2019-02-08T01:01:39.626Z,95335.43
2019-02-08T01:04:09.494Z,95345.98
2019-02-08T01:06:39.197Z,95338.48
2019-02-08T01:09:10.308Z,95327.41
2019-02-08T01:11:40.032Z,95330.65
2019-02-08T01:14:09.995Z,95330.65
2019-02-08T01:16:39.829Z,95333.05
2019-02-08T01:19:09.627Z,95333.05
2019-02-08T01:21:39.101Z,95334.34
2019-02-08T01:24:08.797Z,95335.49
2019-02-08T01:26:38.516Z,95337.58
2019-02-08T01:29:08.300Z,95350.41
2019-02-08T01:31:38.092Z,95331.22
2019-02-08T01:34:08.073Z,95336.66
2019-02-08T01:36:37.800Z,95329.95
2019-02-08T01:39:08.917Z,95320.01
2019-02-08T01:41:38.782Z,95320.01
2019-02-08T01:44:08.584Z,95319.85
2019-02-08T01:46:38.348Z,95320.66
2019-02-08T01:49:08.020Z,95318.41
2019-02-08T01:51:37.934Z,95312.66
2019-02-08T01:54:07.708Z,95319.07
2019-02-08T01:56:37.338Z,95322.59
2019-02-08T01:59:07.203Z,95313.61
2019-02-08T02:01:37.069Z,95321.94
2019-02-08T02:04:07.092Z,95320.70
2019-02-08T02:06:36.718Z,95329.81
2019-02-08T02:09:08.548Z,95326.61
2019-02-08T02:11:38.225Z,95326.61
2019-02-08T02:14:08.098Z,95319.38
2019-02-08T02:16:37.927Z,95319.38
2019-02-08T02:19:07.870Z,95322.58
2019-02-08T02:21:37.442Z,95327.71
2019-02-08T02:24:07.316Z,95320.02
2019-02-08T02:26:37.006Z,95322.88
2019-02-08T02:29:06.944Z,95312.26
2019-02-08T02:31:36.566Z,95312.61
2019-02-08T02:34:06.567Z,95312.61
2019-02-08T02:36:36.354Z,95313.86
2019-02-08T02:39:09.459Z,95313.86
2019-02-08T02:41:39.298Z,95309.34
2019-02-08T02:44:08.917Z,95307.25
2019-02-08T02:46:38.607Z,95300.71
2019-02-08T02:49:08.045Z,95301.75
2019-02-08T02:51:37.918Z,95301.64
2019-02-08T02:54:07.682Z,95304.17
2019-02-08T02:56:37.322Z,95304.17
2019-02-08T02:59:07.484Z,95307.91
2019-02-08T03:01:37.167Z,95296.70
2019-02-08T03:04:07.047Z,95292.20
2019-02-08T03:06:36.879Z,95292.20
2019-02-08T03:09:09.765Z,95280.13
2019-02-08T03:11:39.593Z,95283.28
2019-02-08T03:14:09.202Z,95283.28
2019-02-08T03:16:38.956Z,95277.34
2019-02-08T03:19:09.630Z,95277.34
2019-02-08T03:21:39.185Z,95270.10
2019-02-08T03:24:12.986Z,95270.10
2019-02-08T03:26:40.382Z,95274.14
2019-02-08T03:29:10.043Z,95258.42
2019-02-08T03:31:39.743Z,95258.42
2019-02-08T03:34:09.557Z,95261.63
2019-02-08T03:36:39.542Z,95257.88
2019-02-08T03:39:09.887Z,95245.05
2019-02-08T03:41:39.708Z,95255.44
2019-02-08T03:44:09.436Z,95254.79
2019-02-08T03:46:39.154Z,95252.22
2019-02-08T03:49:09.037Z,95245.13
2019-02-08T03:51:38.937Z,95251.30
2019-02-08T03:54:08.612Z,95251.30
2019-02-08T03:56:38.236Z,95249.85
2019-02-08T03:59:07.791Z,95249.85
2019-02-08T04:01:37.671Z,95249.34
2019-02-08T04:04:16.586Z,95253.19
2019-02-08T04:06:46.425Z,95248.69
2019-02-08T04:09:16.111Z,95249.25
2019-02-08T04:11:45.796Z,95249.25
2019-02-08T04:14:15.604Z,95246.36
2019-02-08T04:16:45.460Z,95244.23
2019-02-08T04:19:15.236Z,95235.40
2019-02-08T04:21:44.767Z,95245.52
2019-02-08T04:24:14.482Z,95238.45
2019-02-08T04:26:44.158Z,95238.45
2019-02-08T04:29:13.777Z,95245.52
2019-02-08T04:31:43.494Z,95241.76
2019-02-08T04:34:13.189Z,95245.08
2019-02-08T04:36:42.793Z,95243.80
2019-02-08T04:39:12.411Z,95238.22
2019-02-08T04:41:41.998Z,95250.16
2019-02-08T04:44:11.927Z,95250.16
2019-02-08T04:46:41.554Z,95259.35
2019-02-08T04:49:11.139Z,95261.72
2019-02-08T04:51:40.754Z,95269.43
2019-02-08T04:54:10.445Z,95264.57
2019-02-08T04:56:40.150Z,95258.91
2019-02-08T04:59:10.015Z,95266.58
2019-02-08T05:01:39.662Z,95270.11
2019-02-08T05:04:09.399Z,95282.31
2019-02-08T05:06:39.086Z,95264.42
2019-02-08T05:09:09.647Z,95264.42
2019-02-08T05:11:39.450Z,95274.32
2019-02-08T05:14:09.338Z,95274.32
2019-02-08T05:16:38.920Z,95276.53
2019-02-08T05:19:08.678Z,95292.74
2019-02-08T05:21:38.402Z,95279.94
2019-02-08T05:24:08.182Z,95283.64
2019-02-08T05:26:37.833Z,95283.64
2019-02-08T05:29:07.645Z,95291.97
2019-02-08T05:31:37.415Z,95292.74
2019-02-08T05:34:07.258Z,95289.61
2019-02-08T05:36:36.976Z,95292.17
2019-02-08T05:39:10.647Z,95296.14
2019-02-08T05:41:40.419Z,95294.67
2019-02-08T05:44:10.197Z,95300.28
2019-02-08T05:46:39.980Z,95303.17
2019-02-08T05:49:09.817Z,95303.17
2019-02-08T05:51:39.427Z,95303.17
2019-02-08T05:54:09.317Z,95304.14
2019-02-08T05:56:38.994Z,95300.92
2019-02-08T05:59:09.055Z,95299.72
2019-02-08T06:01:38.550Z,95304.17
2019-02-08T06:04:08.218Z,95295.51
2019-02-08T06:06:37.940Z,95312.16
2019-02-08T06:09:10.037Z,95299.36
2019-02-08T06:11:39.550Z,95304.94
2019-02-08T06:14:09.317Z,95295.78
2019-02-08T06:16:39.051Z,95302.97
2019-02-08T06:19:08.584Z,95298.16
2019-02-08T06:21:38.334Z,95305.98
2019-02-08T06:24:08.032Z,95306.63
2019-02-08T06:26:37.721Z,95308.95
2019-02-08T06:29:07.630Z,95304.45
2019-02-08T06:31:37.316Z,95304.45
2019-02-08T06:34:07.091Z,95313.41
2019-02-08T06:36:36.705Z,95316.42
2019-02-08T06:39:09.341Z,95313.69
2019-02-08T06:41:39.077Z,95315.30
2019-02-08T06:44:08.814Z,95307.91
2019-02-08T06:46:38.433Z,95313.69
2019-02-08T06:49:08.213Z,95312.16
2019-02-08T06:51:37.995Z,95314.25
2019-02-08T06:54:07.749Z,95314.20
2019-02-08T06:56:58.936Z,95310.66
2019-02-08T06:59:47.527Z,95309.97
2019-02-08T07:02:39.270Z,95311.47
2019-02-08T07:05:26.995Z,95313.98
2019-02-08T07:08:18.543Z,95317.14
2019-02-08T07:10:59.179Z,95318.92
2019-02-08T07:13:40.552Z,95312.53
2019-02-08T07:16:22.779Z,95309.80
2019-02-08T07:19:08.086Z,95314.51
2019-02-08T07:21:45.058Z,95316.59
2019-02-08T07:24:49.021Z,95315.21
2019-02-08T07:27:26.670Z,95312.16
2019-02-08T07:30:14.733Z,95318.73
2019-02-08T07:33:06.528Z,95319.38
2019-02-08T07:36:01.506Z,95321.37
2019-02-08T07:38:56.004Z,95328.27
2019-02-08T07:41:45.745Z,95329.36
2019-02-08T07:44:35.032Z,95336.57
2019-02-08T07:47:13.594Z,95343.27
2019-02-08T07:49:55.626Z,95342.91
2019-02-08T07:52:53.630Z,95351.58
2019-02-08T07:55:57.486Z,95351.70
2019-02-08T07:58:46.255Z,95349.16
2019-02-08T08:01:34.323Z,95354.31
2019-02-08T08:04:21.826Z,95355.74
2019-02-08T08:07:00.712Z,95355.40
2019-02-08T08:09:45.516Z,95353.06
2019-02-08T08:12:27.387Z,95354.66
2019-02-08T08:15:17.417Z,95355.02
2019-02-08T08:18:00.313Z,95359.86
2019-02-08T08:20:47.926Z,95362.45
2019-02-08T08:23:37.442Z,95358.75
2019-02-08T08:26:26.685Z,95386.82
2019-02-08T08:29:18.367Z,95354.81
2019-02-08T08:32:19.537Z,95358.67
2019-02-08T08:35:51.087Z,95358.67
2019-02-08T08:39:02.014Z,95362.58
2019-02-08T08:42:05.429Z,95362.58
2019-02-08T08:45:31.222Z,95363.00
2019-02-08T08:48:56.583Z,95360.72
2019-02-08T08:52:01.908Z,95364.16
2019-02-08T08:55:21.095Z,95365.73
2019-02-08T08:58:45.272Z,95362.55
2019-02-08T09:02:01.464Z,95370.26
2019-02-08T09:05:35.968Z,95370.26
2019-02-08T09:08:28.345Z,95376.03
2019-02-08T09:12:00.175Z,95377.61
2019-02-08T09:15:02.071Z,95376.30
2019-02-08T09:18:21.190Z,95380.69
2019-02-08T09:21:27.361Z,95384.77
2019-02-08T09:24:29.430Z,95379.11
2019-02-08T09:27:38.445Z,95386.88
2019-02-08T09:30:53.289Z,95374.97
2019-02-08T09:33:48.839Z,95382.73
2019-02-08T09:37:10.775Z,95384.75
2019-02-08T09:40:17.811Z,95379.39
2019-02-08T09:43:43.536Z,95388.69
2019-02-08T09:46:48.792Z,95385.84
2019-02-08T09:50:04.243Z,95383.52
2019-02-08T09:53:11.840Z,95383.59
2019-02-08T09:56:24.344Z,95384.26
2019-02-08T10:00:08.376Z,95373.87
2019-02-08T10:03:30.890Z,95368.78
2019-02-08T10:06:34.414Z,95369.03
2019-02-08T10:09:39.733Z,95373.02
2019-02-08T10:13:05.568Z,95367.62
2019-02-08T10:16:12.327Z,95362.91
2019-02-08T10:19:21.572Z,95366.92
2019-02-08T10:22:43.010Z,95367.44
2019-02-08T10:26:11.442Z,95368.64
2019-02-08T10:29:23.348Z,95368.64
2019-02-08T10:32:41.777Z,95363.89
2019-02-08T10:36:16.395Z,95372.77
2019-02-08T10:39:26.529Z,95372.25
2019-02-08T10:42:38.434Z,95363.92
2019-02-08T10:46:03.230Z,95367.55
2019-02-08T10:49:08.672Z,95368.09
2019-02-08T10:52:20.781Z,95357.05
2019-02-08T10:55:30.090Z,95363.14
2019-02-08T10:58:36.500Z,95358.73
2019-02-08T11:01:59.999Z,95359.48
2019-02-08T11:05:29.635Z,95358.17
2019-02-08T11:08:52.128Z,95358.17
2019-02-08T11:12:08.544Z,95356.42
2019-02-08T11:15:30.894Z,95346.84
2019-02-08T11:18:53.323Z,95348.03
2019-02-08T11:21:23.189Z,95349.50
2019-02-08T11:23:52.865Z,95349.27
2019-02-08T11:26:24.554Z,95343.05
2019-02-08T11:28:54.182Z,95342.72
2019-02-08T11:31:23.842Z,95341.91
2019-02-08T11:33:53.757Z,95348.92
2019-02-08T11:36:23.612Z,95347.77
2019-02-08T11:38:53.482Z,95356.97
2019-02-08T11:41:23.284Z,95346.13
2019-02-08T11:43:53.037Z,95352.56
2019-02-08T11:46:22.668Z,95354.79
2019-02-08T11:48:52.246Z,95353.05
2019-02-08T11:51:21.944Z,95350.64
2019-02-08T11:53:51.701Z,95349.33
2019-02-08T11:56:21.371Z,95348.67
2019-02-08T11:58:51.152Z,95349.24
2019-02-08T12:01:20.878Z,95347.89
2019-02-08T12:03:50.587Z,95348.06
2019-02-08T12:06:20.270Z,95348.75
2019-02-08T12:08:49.960Z,95350.06
2019-02-08T12:11:19.741Z,95342.52
2019-02-08T12:13:49.273Z,95339.23
2019-02-08T12:16:19.083Z,95333.88
2019-02-08T12:18:48.833Z,95337.25
2019-02-08T12:21:18.546Z,95340.74
2019-02-08T12:23:48.207Z,95337.59
2019-02-08T12:26:17.925Z,95339.45
2019-02-08T12:28:47.655Z,95339.20
2019-02-08T12:31:17.434Z,95333.24
2019-02-08T12:33:47.043Z,95339.07
2019-02-08T12:36:16.804Z,95335.79
2019-02-08T12:38:46.418Z,95340.74
2019-02-08T12:41:15.964Z,95342.80
2019-02-08T12:43:45.883Z,95341.20
2019-02-08T12:46:15.555Z,95339.77
2019-02-08T12:48:45.170Z,95336.97
2019-02-08T12:51:15.228Z,95341.38
2019-02-08T12:53:44.879Z,95342.31
2019-02-08T12:56:14.552Z,95336.39
2019-02-08T12:58:44.272Z,95338.97
2019-02-08T13:01:14.019Z,95331.22
2019-02-08T13:03:43.667Z,95336.09
2019-02-08T13:06:13.729Z,95336.78
2019-02-08T13:08:43.344Z,95336.20
2019-02-08T13:11:13.090Z,95339.88
2019-02-08T13:13:42.757Z,95343.19
2019-02-08T13:16:12.435Z,95340.64
2019-02-08T13:18:41.982Z,95338.42
2019-02-08T13:21:11.885Z,95336.83
2019-02-08T13:23:43.143Z,95341.03
2019-02-08T13:26:12.986Z,95343.41
2019-02-08T13:28:42.500Z,95349.19
2019-02-08T13:31:12.228Z,95348.78
2019-02-08T13:33:42.032Z,95347.87
2019-02-08T13:36:14.750Z,95345.41
2019-02-08T13:38:44.482Z,95340.34
2019-02-08T13:41:14.194Z,95341.43
2019-02-08T13:43:43.930Z,95336.48
2019-02-08T13:46:13.561Z,95345.63
2019-02-08T13:48:43.411Z,95341.11
2019-02-08T13:51:13.156Z,95334.39
2019-02-08T13:53:43.081Z,95334.03
2019-02-08T13:56:12.835Z,95328.61
2019-02-08T13:58:42.513Z,95334.95
2019-02-08T14:01:12.094Z,95336.30
2019-02-08T14:03:41.739Z,95335.78
2019-02-08T14:06:11.581Z,95336.84
2019-02-08T14:08:41.147Z,95338.78
2019-02-08T14:11:10.958Z,95332.28
2019-02-08T14:13:41.023Z,95332.81
2019-02-08T14:16:10.702Z,95332.66
2019-02-08T14:18:40.308Z,95337.58
2019-02-08T14:21:10.045Z,95339.34
2019-02-08T14:23:39.717Z,95336.76
2019-02-08T14:26:09.621Z,95344.49
2019-02-08T14:28:39.424Z,95343.72
2019-02-08T14:31:09.002Z,95344.95
2019-02-08T14:33:38.775Z,95345.27
2019-02-08T14:36:08.602Z,95345.80
2019-02-08T14:38:38.329Z,95356.30
2019-02-08T14:41:08.171Z,95335.52
2019-02-08T14:43:37.793Z,95355.38
2019-02-08T14:46:07.565Z,95358.86
2019-02-08T14:48:37.272Z,95363.91
2019-02-08T14:51:08.082Z,95357.28
2019-02-08T14:53:37.677Z,95356.97
2019-02-08T14:56:07.431Z,95364.80
2019-02-08T14:58:37.028Z,95355.44
2019-02-08T15:01:06.819Z,95357.63
2019-02-08T15:03:36.368Z,95355.87
2019-02-08T15:06:06.159Z,95358.77
2019-02-08T15:08:35.958Z,95356.20
2019-02-08T15:11:05.757Z,95358.63
2019-02-08T15:13:35.242Z,95359.07
2019-02-08T15:16:05.246Z,95361.17
2019-02-08T15:18:35.191Z,95361.66
2019-02-08T15:21:04.910Z,95362.48
2019-02-08T15:23:34.759Z,95362.78
2019-02-08T15:26:04.678Z,95368.28
2019-02-08T15:28:34.512Z,95368.13
2019-02-08T15:31:04.313Z,95368.77
2019-02-08T15:33:34.196Z,95369.56
2019-02-08T15:36:04.561Z,95372.19
2019-02-08T15:38:34.246Z,95368.06
2019-02-08T15:41:03.975Z,95367.22
2019-02-08T15:43:33.748Z,95366.69
2019-02-08T15:46:05.426Z,95372.36
2019-02-08T15:48:35.367Z,95374.58
2019-02-08T15:51:05.426Z,95367.02
2019-02-08T15:53:35.082Z,95372.89
2019-02-08T15:56:08.775Z,95364.20
2019-02-08T15:58:38.314Z,95364.90
2019-02-08T16:01:10.484Z,95377.86
2019-02-08T16:03:40.117Z,95382.00
2019-02-08T16:06:10.199Z,95379.47
2019-02-08T16:08:39.962Z,95384.00
2019-02-08T16:11:09.798Z,95387.53
2019-02-08T16:13:39.392Z,95389.14
2019-02-08T16:16:09.639Z,95392.48
2019-02-08T16:18:39.328Z,95390.58
2019-02-08T16:21:09.116Z,95398.09
2019-02-08T16:23:38.931Z,95400.66
2019-02-08T16:26:08.807Z,95402.27
2019-02-08T16:28:39.525Z,95399.83
2019-02-08T16:31:09.781Z,95398.86
2019-02-08T16:33:39.568Z,95405.13
2019-02-08T16:36:09.578Z,95400.53
2019-02-08T16:38:39.195Z,95405.83
2019-02-08T16:41:09.062Z,95400.41
2019-02-08T16:43:38.812Z,95397.27
2019-02-08T16:46:08.813Z,95397.27
2019-02-08T16:48:38.668Z,95401.13
2019-02-08T16:51:08.578Z,95405.81
2019-02-08T16:53:38.192Z,95400.69
2019-02-08T16:56:09.377Z,95405.81
2019-02-08T16:58:39.345Z,95401.80
2019-02-08T17:01:09.095Z,95405.18
2019-02-08T17:03:38.832Z,95406.59
2019-02-08T17:06:08.581Z,95406.59
2019-02-08T17:08:38.234Z,95416.19
2019-02-08T17:11:08.261Z,95416.19
2019-02-08T17:13:37.831Z,95409.47
2019-02-08T17:16:07.925Z,95418.79
2019-02-08T17:18:39.018Z,95418.79
2019-02-08T17:21:08.878Z,95416.56
2019-02-08T17:23:38.499Z,95416.72
2019-02-08T17:26:08.213Z,95416.72
2019-02-08T17:28:37.842Z,95431.31
2019-02-08T17:31:07.494Z,95421.72
2019-02-08T17:33:37.149Z,95425.88
2019-02-08T17:36:06.977Z,95425.88
2019-02-08T17:38:36.618Z,95440.00
2019-02-08T17:41:06.935Z,95432.30
2019-02-08T17:43:36.505Z,95436.77
2019-02-08T17:46:06.688Z,95441.92
2019-02-08T17:48:36.453Z,95432.77
2019-02-08T17:51:06.247Z,95442.70
2019-02-08T17:53:35.835Z,95439.83
2019-02-08T17:56:05.657Z,95443.85
2019-02-08T17:58:35.448Z,95445.12
2019-02-08T18:01:05.890Z,95439.02
2019-02-08T18:03:35.713Z,95439.02
2019-02-08T18:06:05.934Z,95452.34
2019-02-08T18:08:35.451Z,95452.34
2019-02-08T18:11:05.426Z,95456.47
2019-02-08T18:13:35.175Z,95456.31
2019-02-08T18:16:05.211Z,95455.05
2019-02-08T18:18:34.866Z,95455.05
2019-02-08T18:21:07.625Z,95459.53
2019-02-08T18:23:37.490Z,95459.53
2019-02-08T18:26:07.293Z,95459.84
2019-02-08T18:28:37.032Z,95460.16
2019-02-08T18:31:06.998Z,95456.76
2019-02-08T18:33:36.802Z,95458.05
2019-02-08T18:36:06.541Z,95455.45
2019-02-08T18:38:36.374Z,95456.59
2019-02-08T18:41:06.172Z,95457.06
2019-02-08T18:43:35.882Z,95460.25
2019-02-08T18:46:05.771Z,95454.02
2019-02-08T18:48:35.308Z,95454.02
2019-02-08T18:51:04.969Z,95454.93
2019-02-08T18:53:34.654Z,95454.93
2019-02-08T18:56:04.348Z,95454.45
2019-02-08T18:58:34.190Z,95455.92
2019-02-08T19:01:05.409Z,95463.63
2019-02-08T19:03:35.204Z,95466.19
2019-02-08T19:06:05.423Z,95468.44
2019-02-08T19:08:35.213Z,95468.92
2019-02-08T19:11:05.217Z,95470.66
2019-02-08T19:13:34.998Z,95476.94
2019-02-08T19:16:04.837Z,95476.94
2019-02-08T19:18:34.493Z,95474.72
2019-02-08T19:21:04.303Z,95479.38
2019-02-08T19:23:33.984Z,95479.38
2019-02-08T19:26:03.873Z,95483.55
2019-02-08T19:28:33.681Z,95480.98
2019-02-08T19:31:03.350Z,95472.17
2019-02-08T19:33:33.130Z,95478.42
2019-02-08T19:36:02.925Z,95478.42
2019-02-08T19:38:32.385Z,95495.13
2019-02-08T19:41:02.261Z,95490.95
2019-02-08T19:43:32.185Z,95496.39
2019-02-08T19:46:02.312Z,95498.45
2019-02-08T19:48:31.937Z,95496.70
2019-02-08T19:51:01.859Z,95504.73
2019-02-08T19:53:31.658Z,95504.06
2019-02-08T19:56:01.529Z,95497.61
2019-02-08T19:58:34.534Z,95501.47
2019-02-08T20:01:02.603Z,95501.47
2019-02-08T20:03:32.295Z,95497.16
2019-02-08T20:06:02.362Z,95511.11
2019-02-08T20:08:32.311Z,95507.91
2019-02-08T20:11:02.090Z,95507.91
2019-02-08T20:13:32.364Z,95507.45
2019-02-08T20:16:02.301Z,95506.13
2019-02-08T20:18:32.230Z,95506.13
2019-02-08T20:21:03.794Z,95500.25
2019-02-08T20:23:33.485Z,95508.09
2019-02-08T20:26:03.335Z,95508.09
2019-02-08T20:28:33.050Z,95500.84
2019-02-08T20:31:02.646Z,95503.44
2019-02-08T20:33:32.499Z,95496.37
2019-02-08T20:36:02.355Z,95506.47
2019-02-08T20:38:32.167Z,95506.47
2019-02-08T20:41:01.774Z,95504.70
2019-02-08T20:43:31.591Z,95504.70
2019-02-08T20:46:01.298Z,95510.78
2019-02-08T20:48:31.234Z,95498.44
2019-02-08T20:51:00.985Z,95498.44
2019-02-08T20:53:30.933Z,95499.41
2019-02-08T20:56:01.049Z,95498.13
2019-02-08T20:58:31.271Z,95498.60
2019-02-08T21:01:01.054Z,95493.64
2019-02-08T21:03:30.646Z,95493.64
2019-02-08T21:06:00.493Z,95497.03
2019-02-08T21:08:30.341Z,95500.86
2019-02-08T21:10:59.947Z,95500.86
2019-02-08T21:13:29.755Z,95490.30
2019-02-08T21:15:59.516Z,95498.94
2019-02-08T21:18:29.236Z,95498.94
2019-02-08T21:20:58.886Z,95497.84
2019-02-08T21:23:28.660Z,95497.84
2019-02-08T21:25:58.347Z,95500.86
2019-02-08T21:28:28.280Z,95503.77
2019-02-08T21:30:57.988Z,95502.17
2019-02-08T21:33:27.721Z,95507.32
2019-02-08T21:35:57.516Z,95507.83
2019-02-08T21:38:27.097Z,95499.64
2019-02-08T21:40:56.898Z,95499.64
2019-02-08T21:43:26.478Z,95504.11
2019-02-08T21:45:56.188Z,95502.51
2019-02-08T21:48:27.376Z,95502.51
2019-02-08T21:50:57.042Z,95505.72
2019-02-08T21:53:26.719Z,95512.77
2019-02-08T21:55:56.530Z,95512.77
2019-02-08T21:58:26.108Z,95521.28
2019-02-08T22:00:55.823Z,95521.28
2019-02-08T22:03:25.373Z,95519.19
2019-02-08T22:05:58.300Z,95515.00
2019-02-08T22:08:28.097Z,95515.00
2019-02-08T22:10:57.810Z,95522.05
2019-02-08T22:13:27.520Z,95515.95
2019-02-08T22:15:57.348Z,95514.02
2019-02-08T22:18:27.244Z,95515.30
2019-02-08T22:20:57.021Z,95519.61
2019-02-08T22:23:26.853Z,95522.50
2019-02-08T22:25:56.438Z,95519.77
2019-02-08T22:28:26.268Z,95519.77
2019-02-08T22:30:56.175Z,95527.00
2019-02-08T22:33:25.975Z,95527.00
2019-02-08T22:35:55.708Z,95522.19
2019-02-08T22:38:25.378Z,95526.84
2019-02-08T22:40:55.296Z,95525.06
2019-02-08T22:43:24.940Z,95522.80
2019-02-08T22:45:54.596Z,95520.26
2019-02-08T22:48:24.354Z,95518.83
2019-02-08T22:50:53.994Z,95523.95
2019-02-08T22:53:23.680Z,95523.28
2019-02-08T22:55:53.469Z,95523.28
2019-02-08T22:58:23.020Z,95527.48
2019-02-08T23:01:27.504Z,95530.38
2019-02-08T23:04:01.869Z,95517.23
2019-02-08T23:06:31.637Z,95520.09
2019-02-08T23:09:01.382Z,95520.09
2019-02-08T23:11:31.323Z,95519.75
2019-02-08T23:14:01.277Z,95511.94
2019-02-08T23:16:30.890Z,95519.13
2019-02-08T23:19:00.502Z,95519.13
2019-02-08T23:21:30.108Z,95511.92
2019-02-08T23:23:59.693Z,95518.84
2019-02-08T23:26:29.330Z,95514.33
2019-02-08T23:28:58.921Z,95514.33
2019-02-08T23:31:28.449Z,95517.05
2019-02-08T23:33:58.062Z,95510.45
2019-02-08T23:36:28.042Z,95513.52
2019-02-08T23:38:57.628Z,95512.07
2019-02-08T23:41:27.235Z,95511.45
2019-02-08T23:43:57.047Z,95511.74
2019-02-08T23:46:26.787Z,95510.30
2019-02-08T23:48:56.459Z,95511.27
2019-02-08T23:51:26.248Z,95505.18
2019-02-08T23:53:55.915Z,95509.05
2019-02-08T23:56:25.452Z,95509.25
2019-02-08T23:58:55.012Z,95507.67
